createdAt,value
2018-07-26T00:00:30.485Z,19.00
2018-07-26T00:02:59.332Z,18.90
2018-07-26T00:09:11.346Z,18.80
2018-07-26T00:11:41.056Z,18.80
2018-07-26T00:14:10.749Z,18.80
2018-07-26T00:16:39.519Z,18.70
2018-07-26T00:19:08.458Z,18.70
2018-07-26T00:21:37.442Z,18.80
2018-07-26T00:24:06.861Z,18.70
2018-07-26T00:26:36.540Z,18.60
2018-07-26T00:29:05.849Z,18.60
2018-07-26T00:31:35.332Z,18.60
2018-07-26T00:34:04.639Z,18.60
2018-07-26T00:36:34.286Z,18.60
2018-07-26T00:39:03.867Z,18.50
2018-07-26T00:41:33.042Z,18.50
2018-07-26T00:44:12.777Z,18.40
2018-07-26T00:46:41.584Z,18.30
2018-07-26T00:49:10.519Z,18.30
2018-07-26T00:51:39.322Z,18.30
2018-07-26T00:54:08.094Z,18.20
2018-07-26T00:56:38.324Z,18.20
2018-07-26T00:59:07.483Z,18.10
2018-07-26T01:01:36.890Z,18.00
2018-07-26T01:04:06.195Z,18.10
2018-07-26T01:06:35.000Z,18.00
2018-07-26T01:09:06.487Z,18.00
2018-07-26T01:16:32.761Z,17.90
2018-07-26T01:19:01.545Z,17.80
2018-07-26T01:21:30.639Z,17.70
2018-07-26T01:23:59.811Z,17.70
2018-07-26T01:26:28.971Z,17.80
2018-07-26T01:28:58.165Z,17.80
2018-07-26T01:31:26.979Z,17.80
2018-07-26T01:33:56.903Z,17.70
2018-07-26T01:36:26.055Z,17.70
2018-07-26T01:38:55.056Z,17.60
2018-07-26T01:41:23.839Z,17.60
2018-07-26T01:44:03.612Z,17.60
2018-07-26T01:46:32.740Z,17.50
2018-07-26T01:49:01.999Z,17.40
2018-07-26T01:51:30.963Z,17.40
2018-07-26T01:53:59.761Z,17.40
2018-07-26T01:56:28.881Z,17.40
2018-07-26T01:59:00.784Z,17.30
2018-07-26T02:01:29.788Z,17.20
2018-07-26T02:03:58.817Z,17.20
2018-07-26T02:06:27.622Z,17.10
2018-07-26T02:08:56.700Z,17.10
2018-07-26T02:11:25.831Z,17.10
2018-07-26T02:13:55.076Z,17.10
2018-07-26T02:16:24.062Z,17.00
2018-07-26T02:18:53.104Z,16.90
2018-07-26T02:21:22.232Z,16.90
2018-07-26T02:23:51.489Z,16.90
2018-07-26T02:26:20.664Z,16.90
2018-07-26T02:28:49.515Z,16.90
2018-07-26T02:31:18.267Z,17.00
2018-07-26T02:33:47.345Z,16.90
2018-07-26T02:36:16.579Z,16.90
2018-07-26T02:38:45.589Z,16.90
2018-07-26T02:41:14.393Z,16.80
2018-07-26T02:46:11.522Z,16.90
2018-07-26T02:48:40.301Z,16.80
2018-07-26T02:51:09.361Z,16.90
2018-07-26T02:53:38.347Z,16.90
2018-07-26T02:56:07.661Z,16.80
2018-07-26T03:01:05.017Z,16.80
2018-07-26T03:03:33.951Z,16.80
2018-07-26T03:06:03.998Z,16.90
2018-07-26T03:08:33.269Z,16.80
2018-07-26T03:11:02.673Z,16.80
2018-07-26T03:13:31.808Z,16.80
2018-07-26T03:16:00.731Z,16.90
2018-07-26T03:18:30.181Z,16.70
2018-07-26T03:20:59.140Z,16.60
2018-07-26T03:23:27.910Z,16.50
2018-07-26T03:25:56.716Z,16.50
2018-07-26T03:28:25.608Z,16.50
2018-07-26T03:30:55.261Z,16.50
2018-07-26T03:33:24.542Z,16.50
2018-07-26T03:35:53.988Z,16.40
2018-07-26T03:38:23.757Z,16.30
2018-07-26T03:40:53.175Z,16.20
2018-07-26T03:43:22.212Z,16.20
2018-07-26T03:45:51.051Z,16.20
2018-07-26T03:48:20.060Z,16.10
2018-07-26T03:50:49.080Z,16.10
2018-07-26T03:53:17.837Z,16.20
2018-07-26T03:55:47.335Z,16.20
2018-07-26T03:58:16.548Z,16.20
2018-07-26T04:00:45.676Z,16.20
2018-07-26T04:03:14.537Z,16.30
2018-07-26T04:05:43.284Z,16.20
2018-07-26T04:08:12.815Z,16.30
2018-07-26T04:10:42.054Z,16.30
2018-07-26T04:13:11.525Z,16.20
2018-07-26T04:15:40.570Z,16.20
2018-07-26T04:18:09.310Z,16.20
2018-07-26T04:20:38.077Z,16.20
2018-07-26T04:23:07.389Z,16.30
2018-07-26T04:25:36.625Z,16.30
2018-07-26T04:28:05.508Z,16.30
2018-07-26T04:30:34.772Z,16.20
2018-07-26T04:33:04.080Z,16.20
2018-07-26T04:35:33.823Z,16.30
2018-07-26T04:38:02.579Z,16.30
2018-07-26T04:40:31.604Z,16.40
2018-07-26T04:43:00.747Z,16.40
2018-07-26T04:45:29.716Z,16.40
2018-07-26T04:47:58.709Z,16.30
2018-07-26T04:50:27.495Z,16.30
2018-07-26T04:52:56.766Z,16.20
2018-07-26T04:55:25.552Z,16.20
2018-07-26T04:57:54.375Z,16.20
2018-07-26T05:00:23.636Z,16.20
2018-07-26T05:02:52.492Z,16.20
2018-07-26T05:05:21.877Z,16.20
2018-07-26T05:07:51.064Z,16.30
2018-07-26T05:10:20.004Z,16.50
2018-07-26T05:12:48.821Z,16.50
2018-07-26T05:15:17.976Z,16.70
2018-07-26T05:17:47.408Z,16.70
2018-07-26T05:20:16.899Z,16.70
2018-07-26T05:22:46.160Z,16.90
2018-07-26T05:25:15.262Z,16.90
2018-07-26T05:27:44.509Z,17.10
2018-07-26T05:30:13.328Z,17.20
2018-07-26T05:32:42.765Z,17.20
2018-07-26T05:35:11.588Z,17.20
2018-07-26T05:37:40.605Z,17.20
2018-07-26T05:40:09.690Z,17.30
2018-07-26T05:42:38.796Z,17.20
2018-07-26T05:45:11.182Z,17.40
2018-07-26T05:47:40.034Z,17.50
2018-07-26T05:50:09.500Z,17.80
2018-07-26T05:52:38.548Z,17.90
2018-07-26T05:55:08.835Z,17.80
2018-07-26T05:57:37.899Z,17.90
2018-07-26T06:00:11.407Z,17.80
2018-07-26T06:02:41.428Z,17.90
2018-07-26T06:05:12.413Z,18.10
2018-07-26T06:07:41.715Z,18.40
2018-07-26T06:10:14.547Z,18.60
2018-07-26T06:12:44.129Z,18.70
2018-07-26T06:15:13.491Z,18.80
2018-07-26T06:17:42.512Z,18.90
2018-07-26T06:20:12.753Z,19.00
2018-07-26T06:22:43.410Z,19.00
2018-07-26T06:25:12.411Z,19.00
2018-07-26T06:27:41.638Z,19.00
2018-07-26T06:30:12.176Z,19.00
2018-07-26T06:32:41.690Z,19.10
2018-07-26T06:35:12.037Z,19.10
2018-07-26T06:37:41.429Z,19.20
2018-07-26T06:40:11.646Z,19.40
2018-07-26T06:42:41.636Z,19.70
2018-07-26T06:45:11.092Z,19.70
2018-07-26T06:47:40.289Z,20.00
2018-07-26T06:50:11.184Z,20.10
2018-07-26T06:52:40.877Z,20.20
2018-07-26T06:57:38.796Z,20.60
2018-07-26T07:00:10.837Z,20.70
2018-07-26T07:02:41.353Z,20.70
2018-07-26T07:05:16.918Z,20.80
2018-07-26T07:07:46.672Z,21.10
2018-07-26T07:10:16.723Z,21.10
2018-07-26T07:12:45.894Z,21.20
2018-07-26T07:15:14.656Z,21.40
2018-07-26T07:17:43.852Z,21.60
2018-07-26T07:20:13.151Z,21.70
2018-07-26T07:22:43.784Z,21.70
2018-07-26T07:25:14.229Z,21.70
2018-07-26T07:27:43.080Z,21.80
2018-07-26T07:30:12.949Z,21.80
2018-07-26T07:32:42.499Z,21.80
2018-07-26T07:35:12.046Z,22.10
2018-07-26T07:37:41.150Z,22.20
2018-07-26T07:40:12.809Z,22.20
2018-07-26T07:42:43.202Z,22.40
2018-07-26T07:45:12.547Z,22.50
2018-07-26T07:47:41.431Z,22.70
2018-07-26T07:50:10.224Z,22.90
2018-07-26T07:52:39.107Z,22.90
2018-07-26T07:55:08.491Z,23.00
2018-07-26T07:57:37.499Z,23.10
2018-07-26T08:00:08.621Z,23.30
2018-07-26T08:02:37.876Z,23.40
2018-07-26T08:05:06.888Z,23.50
2018-07-26T08:07:35.649Z,23.60
2018-07-26T08:10:05.336Z,23.80
2018-07-26T08:12:40.374Z,23.60
2018-07-26T08:15:10.676Z,23.70
2018-07-26T08:17:40.965Z,23.80
2018-07-26T08:20:10.740Z,23.80
2018-07-26T08:22:39.543Z,23.90
2018-07-26T08:25:09.260Z,24.20
2018-07-26T08:27:38.557Z,24.30
2018-07-26T08:30:10.235Z,24.50
2018-07-26T08:32:39.055Z,24.30
2018-07-26T08:35:09.012Z,24.50
2018-07-26T08:37:37.864Z,24.50
2018-07-26T08:40:06.993Z,24.80
2018-07-26T08:42:35.849Z,25.00
2018-07-26T08:45:05.016Z,25.20
2018-07-26T08:47:34.105Z,25.10
2018-07-26T08:50:04.787Z,25.20
2018-07-26T08:52:33.844Z,25.10
2018-07-26T08:55:02.780Z,25.20
2018-07-26T08:57:31.682Z,25.20
2018-07-26T09:00:00.800Z,25.30
2018-07-26T09:05:02.089Z,25.60
2018-07-26T09:07:31.456Z,25.80
2018-07-26T09:10:00.631Z,26.10
2018-07-26T09:12:29.734Z,26.30
2018-07-26T09:15:00.827Z,26.50
2018-07-26T09:17:31.375Z,26.60
2018-07-26T09:20:01.053Z,26.80
2018-07-26T09:22:30.051Z,27.10
2018-07-26T09:24:58.876Z,27.20
2018-07-26T09:27:28.112Z,27.60
2018-07-26T09:29:57.283Z,28.00
2018-07-26T09:32:26.246Z,28.60
2018-07-26T09:37:25.351Z,28.60
2018-07-26T09:39:55.440Z,28.60
2018-07-26T09:42:24.632Z,28.30
2018-07-26T09:44:54.188Z,28.10
2018-07-26T09:47:24.217Z,28.10
2018-07-26T09:49:55.544Z,28.20
2018-07-26T09:52:31.481Z,28.00
2018-07-26T09:55:02.009Z,27.90
2018-07-26T09:57:30.720Z,28.00
2018-07-26T09:59:59.864Z,28.10
2018-07-26T10:02:28.630Z,28.30
2018-07-26T10:04:57.432Z,28.40
2018-07-26T10:07:26.268Z,28.70
2018-07-26T10:09:56.060Z,28.70
2018-07-26T10:12:25.560Z,28.90
2018-07-26T10:14:54.651Z,29.00
2018-07-26T10:17:24.100Z,29.20
2018-07-26T10:19:53.191Z,29.10
2018-07-26T10:22:23.169Z,29.20
2018-07-26T10:24:52.245Z,29.30
2018-07-26T10:27:23.159Z,29.40
2018-07-26T10:29:52.487Z,29.30
2018-07-26T10:32:22.093Z,29.10
2018-07-26T10:34:50.985Z,29.10
2018-07-26T10:37:19.725Z,29.00
2018-07-26T10:39:49.480Z,28.90
2018-07-26T10:42:20.840Z,29.00
2018-07-26T10:44:51.592Z,29.10
2018-07-26T10:47:21.147Z,29.20
2018-07-26T10:50:00.773Z,29.20
2018-07-26T10:52:29.904Z,29.30
2018-07-26T10:54:58.631Z,29.40
2018-07-26T10:57:27.652Z,29.50
2018-07-26T11:02:27.186Z,29.70
2018-07-26T11:04:57.668Z,29.70
2018-07-26T11:07:26.505Z,29.80
2018-07-26T11:09:55.685Z,29.90
2018-07-26T11:12:24.652Z,30.00
2018-07-26T11:14:53.706Z,30.10
2018-07-26T11:17:23.123Z,30.30
2018-07-26T11:19:53.901Z,30.50
2018-07-26T11:22:22.676Z,30.80
2018-07-26T11:24:55.414Z,31.00
2018-07-26T11:27:26.125Z,31.10
2018-07-26T11:29:55.662Z,31.10
2018-07-26T11:32:24.779Z,31.20
2018-07-26T11:34:54.501Z,31.20
2018-07-26T11:37:25.291Z,31.30
2018-07-26T11:39:54.374Z,31.40
2018-07-26T11:42:23.244Z,31.60
2018-07-26T11:44:52.777Z,31.60
2018-07-26T11:47:21.846Z,32.20
2018-07-26T11:49:50.957Z,32.40
2018-07-26T11:52:23.477Z,32.20
2018-07-26T11:54:54.081Z,31.80
2018-07-26T11:57:23.206Z,31.50
2018-07-26T11:59:52.337Z,31.40
2018-07-26T12:02:21.280Z,31.40
2018-07-26T12:04:50.305Z,31.30
2018-07-26T12:07:20.072Z,31.60
2018-07-26T12:12:17.694Z,31.70
2018-07-26T12:14:46.792Z,31.50
2018-07-26T12:17:15.817Z,31.60
2018-07-26T12:19:44.943Z,31.70
2018-07-26T12:22:14.332Z,31.70
2018-07-26T12:24:45.719Z,31.50
2018-07-26T12:27:15.211Z,31.50
2018-07-26T12:29:44.335Z,31.60
2018-07-26T12:32:13.443Z,31.90
2018-07-26T12:34:42.503Z,31.80
2018-07-26T12:37:11.305Z,32.10
2018-07-26T12:39:42.636Z,32.30
2018-07-26T12:42:15.454Z,32.00
2018-07-26T12:44:45.900Z,31.70
2018-07-26T12:47:15.255Z,31.50
2018-07-26T12:49:44.688Z,31.50
2018-07-26T12:52:18.123Z,31.40
2018-07-26T12:54:47.461Z,31.40
2018-07-26T12:57:19.948Z,31.50
2018-07-26T12:59:52.362Z,31.80
2018-07-26T13:02:23.325Z,31.80
2018-07-26T13:04:52.513Z,31.60
2018-07-26T13:07:21.472Z,31.60
2018-07-26T13:09:50.388Z,31.60
2018-07-26T13:12:19.374Z,31.70
2018-07-26T13:14:49.087Z,31.70
2018-07-26T13:17:19.882Z,31.70
2018-07-26T13:19:48.940Z,32.00
2018-07-26T13:22:17.890Z,32.10
2018-07-26T13:24:47.269Z,32.10
2018-07-26T13:27:16.038Z,32.00
2018-07-26T13:29:45.233Z,32.00
2018-07-26T13:32:14.809Z,32.10
2018-07-26T13:34:43.969Z,32.30
2018-07-26T13:37:13.207Z,32.50
2018-07-26T13:39:44.239Z,32.70
2018-07-26T13:42:13.207Z,32.70
2018-07-26T13:44:42.343Z,32.80
2018-07-26T13:47:12.585Z,33.00
2018-07-26T13:49:43.828Z,32.90
2018-07-26T13:52:12.849Z,32.80
2018-07-26T13:57:10.676Z,32.90
2018-07-26T13:59:39.405Z,33.10
2018-07-26T14:02:08.547Z,33.20
2018-07-26T14:04:37.276Z,33.10
2018-07-26T14:07:10.515Z,32.90
2018-07-26T14:09:40.445Z,32.90
2018-07-26T14:12:09.280Z,32.90
2018-07-26T14:14:38.112Z,33.10
2018-07-26T14:17:06.852Z,33.00
2018-07-26T14:19:35.660Z,32.90
2018-07-26T14:22:07.647Z,32.60
2018-07-26T14:27:06.941Z,32.30
2018-07-26T14:29:36.088Z,32.50
2018-07-26T14:37:29.588Z,32.90
2018-07-26T14:39:58.650Z,32.90
2018-07-26T14:42:28.279Z,32.90
2018-07-26T14:44:57.419Z,32.90
2018-07-26T14:47:26.905Z,32.60
2018-07-26T14:49:57.417Z,32.60
2018-07-26T14:52:28.644Z,32.50
2018-07-26T14:54:58.180Z,32.60
2018-07-26T14:57:29.923Z,32.50
2018-07-26T14:59:58.761Z,32.50
2018-07-26T15:02:27.552Z,32.50
2018-07-26T15:04:56.900Z,32.40
2018-07-26T15:07:25.785Z,32.50
2018-07-26T15:09:59.418Z,32.30
2018-07-26T15:12:28.541Z,32.30
2018-07-26T15:14:58.572Z,32.30
2018-07-26T15:17:27.744Z,32.40
2018-07-26T15:19:56.902Z,32.30
2018-07-26T15:22:26.197Z,32.30
2018-07-26T15:24:55.907Z,32.20
2018-07-26T15:27:26.420Z,32.00
2018-07-26T15:32:25.591Z,32.10
2018-07-26T15:34:54.963Z,32.00
2018-07-26T15:37:27.900Z,32.10
2018-07-26T15:39:56.760Z,32.20
2018-07-26T15:42:26.122Z,32.00
2018-07-26T15:44:56.544Z,31.90
2018-07-26T15:47:27.357Z,31.90
2018-07-26T15:49:57.750Z,31.90
2018-07-26T15:52:26.504Z,31.90
2018-07-26T15:54:55.456Z,31.90
2018-07-26T15:57:24.917Z,31.80
2018-07-26T15:59:53.575Z,31.80
2018-07-26T16:04:51.797Z,31.80
2018-07-26T16:07:20.868Z,31.70
2018-07-26T16:09:53.199Z,31.70
2018-07-26T16:12:22.138Z,31.60
2018-07-26T16:14:51.181Z,31.60
2018-07-26T16:19:51.045Z,31.50
2018-07-26T16:22:20.370Z,31.60
2018-07-26T16:24:49.595Z,31.70
2018-07-26T16:27:18.757Z,31.60
2018-07-26T16:29:47.961Z,31.50
2018-07-26T16:32:17.052Z,31.30
2018-07-26T16:34:49.642Z,31.20
2018-07-26T16:37:19.050Z,31.20
2018-07-26T16:39:48.326Z,31.10
2018-07-26T16:42:17.494Z,31.10
2018-07-26T16:44:46.467Z,31.00
2018-07-26T16:47:17.676Z,31.10
2018-07-26T16:49:49.387Z,31.00
2018-07-26T16:54:48.009Z,31.00
2018-07-26T16:57:16.937Z,31.10
2018-07-26T16:59:46.032Z,31.10
2018-07-26T17:02:15.454Z,31.10
2018-07-26T17:04:44.532Z,31.10
2018-07-26T17:07:14.754Z,30.90
2018-07-26T17:09:45.664Z,31.00
2018-07-26T17:12:14.781Z,31.10
2018-07-26T17:14:44.087Z,31.00
2018-07-26T17:17:13.240Z,30.80
2018-07-26T17:19:41.999Z,30.80
2018-07-26T17:22:10.763Z,30.60
2018-07-26T17:24:41.518Z,30.60
2018-07-26T17:27:12.212Z,30.70
2018-07-26T17:29:40.967Z,30.60
2018-07-26T17:32:09.991Z,30.60
2018-07-26T17:34:38.768Z,30.60
2018-07-26T17:37:07.567Z,30.60
2018-07-26T17:42:09.887Z,30.50
2018-07-26T17:44:38.912Z,30.40
2018-07-26T17:47:08.139Z,30.40
2018-07-26T17:49:36.960Z,30.30
2018-07-26T17:52:06.049Z,30.30
2018-07-26T17:54:36.057Z,30.20
2018-07-26T17:57:05.165Z,30.20
2018-07-26T17:59:34.563Z,30.10
2018-07-26T18:02:03.780Z,30.10
2018-07-26T18:04:32.608Z,29.90
2018-07-26T18:07:01.374Z,29.80
2018-07-26T18:09:31.596Z,29.70
2018-07-26T18:12:02.572Z,29.70
2018-07-26T18:14:32.546Z,29.50
2018-07-26T18:17:01.836Z,29.40
2018-07-26T18:19:31.011Z,29.20
2018-07-26T18:21:59.753Z,29.20
2018-07-26T18:24:28.509Z,29.10
2018-07-26T18:26:57.790Z,29.10
2018-07-26T18:29:27.782Z,29.00
2018-07-26T18:31:59.373Z,28.80
2018-07-26T18:34:28.904Z,28.80
2018-07-26T18:36:58.268Z,28.70
2018-07-26T18:39:27.035Z,28.60
2018-07-26T18:41:55.799Z,28.40
2018-07-26T18:44:25.060Z,28.30
2018-07-26T18:46:54.180Z,28.30
2018-07-26T18:49:27.054Z,28.20
2018-07-26T18:51:56.210Z,28.10
2018-07-26T18:54:25.025Z,28.00
2018-07-26T18:56:54.068Z,27.90
2018-07-26T18:59:23.026Z,27.90
2018-07-26T19:01:52.854Z,27.80
2018-07-26T19:04:24.136Z,27.70
2018-07-26T19:06:56.324Z,27.70
2018-07-26T19:09:27.383Z,27.60
2018-07-26T19:11:57.041Z,27.50
2018-07-26T19:14:25.836Z,27.50
2018-07-26T19:16:54.801Z,27.40
2018-07-26T19:19:23.548Z,27.40
2018-07-26T19:21:52.741Z,27.30
2018-07-26T19:24:23.155Z,27.30
2018-07-26T19:26:52.279Z,27.10
2018-07-26T19:29:21.016Z,27.00
2018-07-26T19:31:49.794Z,26.90
2018-07-26T19:34:18.836Z,26.90
2018-07-26T19:36:48.291Z,26.80
2018-07-26T19:39:18.647Z,26.80
2018-07-26T19:41:47.792Z,26.70
2018-07-26T19:44:17.237Z,26.60
2018-07-26T19:46:47.029Z,26.60
2018-07-26T19:49:15.833Z,26.50
2018-07-26T19:51:46.046Z,26.40
2018-07-26T19:54:18.465Z,26.20
2018-07-26T19:56:50.637Z,26.20
2018-07-26T19:59:19.967Z,26.10
2018-07-26T20:01:48.814Z,26.10
2018-07-26T20:04:18.097Z,26.00
2018-07-26T20:06:47.237Z,26.00
2018-07-26T20:09:16.102Z,25.90
2018-07-26T20:11:46.563Z,25.90
2018-07-26T20:14:16.432Z,25.70
2018-07-26T20:16:45.590Z,25.70
2018-07-26T20:19:14.808Z,25.60
2018-07-26T20:21:43.869Z,25.60
2018-07-26T20:24:12.672Z,25.60
2018-07-26T20:26:41.711Z,25.60
2018-07-26T20:29:12.365Z,25.50
2018-07-26T20:31:42.099Z,25.50
2018-07-26T20:34:11.548Z,25.50
2018-07-26T20:36:40.724Z,25.40
2018-07-26T20:39:14.133Z,25.40
2018-07-26T20:41:42.999Z,25.40
2018-07-26T20:44:12.106Z,25.30
2018-07-26T20:46:42.904Z,25.30
2018-07-26T20:49:12.920Z,25.30
2018-07-26T20:56:39.294Z,25.00
2018-07-26T20:59:09.183Z,24.80
2018-07-26T21:01:38.804Z,24.60
2018-07-26T21:04:07.577Z,24.30
2018-07-26T21:06:36.629Z,24.10
2018-07-26T21:09:09.555Z,24.00
2018-07-26T21:11:38.331Z,23.80
2018-07-26T21:14:07.379Z,23.70
2018-07-26T21:19:05.942Z,23.60
2018-07-26T21:21:36.179Z,23.60
2018-07-26T21:24:05.594Z,23.60
2018-07-26T21:26:34.688Z,23.50
2018-07-26T21:29:03.676Z,23.40
2018-07-26T21:31:34.654Z,23.30
2018-07-26T21:34:04.950Z,23.30
2018-07-26T21:36:35.145Z,23.30
2018-07-26T21:39:06.811Z,23.20
2018-07-26T21:41:35.799Z,23.10
2018-07-26T21:44:05.105Z,23.00
2018-07-26T21:46:34.574Z,23.10
2018-07-26T21:49:03.701Z,23.60
2018-07-26T21:51:33.806Z,23.90
2018-07-26T21:54:03.635Z,24.00
2018-07-26T21:56:32.412Z,23.90
2018-07-26T21:59:01.160Z,23.90
2018-07-26T22:01:30.347Z,23.90
2018-07-26T22:03:59.228Z,23.90
2018-07-26T22:06:28.411Z,23.80
2018-07-26T22:08:57.248Z,23.70
2018-07-26T22:11:26.544Z,23.80
2018-07-26T22:13:55.492Z,23.70
2018-07-26T22:16:24.249Z,23.60
2018-07-26T22:18:54.860Z,23.70
2018-07-26T22:21:23.786Z,23.70
2018-07-26T22:23:53.575Z,23.70
2018-07-26T22:26:22.525Z,23.70
2018-07-26T22:28:51.343Z,23.60
2018-07-26T22:31:20.183Z,23.60
2018-07-26T22:33:49.190Z,23.60
2018-07-26T22:36:18.457Z,23.50
2018-07-26T22:38:48.668Z,23.60
2018-07-26T22:41:17.627Z,23.50
2018-07-26T22:43:46.851Z,23.30
2018-07-26T22:46:15.616Z,23.30
2018-07-26T22:48:44.656Z,23.10
2018-07-26T22:51:13.808Z,22.90
2018-07-26T22:53:44.635Z,22.80
2018-07-26T22:56:16.089Z,22.70
2018-07-26T22:58:45.280Z,22.60
2018-07-26T23:03:42.628Z,22.70
2018-07-26T23:06:11.357Z,22.60
2018-07-26T23:08:40.308Z,22.40
2018-07-26T23:11:09.052Z,22.40
2018-07-26T23:13:38.503Z,22.40
2018-07-26T23:16:07.743Z,22.20
2018-07-26T23:18:36.624Z,22.10
2018-07-26T23:21:05.456Z,22.10
2018-07-26T23:23:34.931Z,22.10
2018-07-26T23:26:05.063Z,22.10
2018-07-26T23:28:34.244Z,22.10
2018-07-26T23:31:03.689Z,21.90
2018-07-26T23:33:32.743Z,22.00
2018-07-26T23:36:01.520Z,21.90
2018-07-26T23:38:32.539Z,21.80
2018-07-26T23:41:01.328Z,21.80
2018-07-26T23:43:30.268Z,21.70
2018-07-26T23:45:59.464Z,21.70
2018-07-26T23:48:28.195Z,21.70
2018-07-26T23:50:56.959Z,21.70
2018-07-26T23:53:28.184Z,21.70
2018-07-26T23:55:59.728Z,21.70
2018-07-26T23:58:28.726Z,21.50
